FYKT/KMP METAR and TAF weather

Enter ICAO airport designator
Station Type Date Time Source
FYKT METAR 2019/04/18 20:00 UTC NOAA

FYKT 182000Z AUTO 10006KT //// // ////// 24/M08 Q1027


Station Type Date Time Source
FYKT Decoded METAR 2019/04/18 20:00 UTC NOAA

Keetmanshoop, Namibia (FYKT) 26-32S 018-07E 1100M
Apr 18, 2019 - 04:00 PM EDT / 2019.04.18 2000 UTC
Wind: from the E (100 degrees) at 7 MPH (6 KT):0
Temperature: 75 F (24 C)
Dew Point: 17 F (-8 C)
Relative Humidity: 11%
Pressure (altimeter): 30.33 in. Hg (1027 hPa)
ob: FYKT 182000Z AUTO 10006KT //// // ////// 24/M08 Q1027
cycle: 20

Station Type Date Time Source
FYKT TAF 2019/04/18 18:48 UTC NOAA

TAF TAF FYKT 181600Z 1818/1918 32006KT CAVOK
BECMG 1819/1821 25003KT
BECMG 1909/1911 33012KT
BECMG 1916/1918 22012KT

Example: see airport list